sensor_id;sensor_type;location;lat;lon;timestamp;pressure;altitude;pressure_sealevel;temperature;humidity
36092;BME280;22147;52.388;13.390;2023-09-30T00:01:30;101236.66;;;14.98;100.00
36092;BME280;22147;52.388;13.390;2023-09-30T00:03:59;101238.97;;;14.96;100.00
36092;BME280;22147;52.388;13.390;2023-09-30T00:06:30;101248.66;;;14.99;100.00
36092;BME280;22147;52.388;13.390;2023-09-30T00:08:59;101251.00;;;14.97;100.00
36092;BME280;22147;52.388;13.390;2023-09-30T00:11:27;101265.44;;;14.99;100.00
36092;BME280;22147;52.388;13.390;2023-09-30T00:13:55;101260.75;;;14.91;100.00
36092;BME280;22147;52.388;13.390;2023-09-30T00:16:24;101270.38;;;14.81;100.00
36092;BME280;22147;52.388;13.390;2023-09-30T00:18:51;101271.97;;;14.70;100.00
36092;BME280;22147;52.388;13.390;2023-09-30T00:21:24;101278.47;;;14.61;100.00
36092;BME280;22147;52.388;13.390;2023-09-30T00:23:53;101294.88;;;14.42;100.00
36092;BME280;22147;52.388;13.390;2023-09-30T00:26:23;101291.47;;;14.36;100.00
36092;BME280;22147;52.388;13.390;2023-09-30T00:28:53;101297.09;;;14.28;100.00
36092;BME280;22147;52.388;13.390;2023-09-30T00:31:24;101301.78;;;14.15;100.00
36092;BME280;22147;52.388;13.390;2023-09-30T00:33:54;101304.81;;;14.01;100.00
36092;BME280;22147;52.388;13.390;2023-09-30T00:36:25;101307.19;;;13.90;100.00
36092;BME280;22147;52.388;13.390;2023-09-30T00:38:55;101309.38;;;13.84;100.00
36092;BME280;22147;52.388;13.390;2023-09-30T00:41:25;101313.31;;;13.83;100.00
36092;BME280;22147;52.388;13.390;2023-09-30T00:43:55;101308.94;;;13.74;100.00
36092;BME280;22147;52.388;13.390;2023-09-30T00:46:32;101322.56;;;13.67;100.00
36092;BME280;22147;52.388;13.390;2023-09-30T00:49:03;101322.13;;;13.56;100.00
36092;BME280;22147;52.388;13.390;2023-09-30T00:51:33;101320.66;;;13.50;100.00
36092;BME280;22147;52.388;13.390;2023-09-30T00:54:04;101322.97;;;13.48;100.00
36092;BME280;22147;52.388;13.390;2023-09-30T00:56:45;101322.84;;;13.35;100.00
36092;BME280;22147;52.388;13.390;2023-09-30T00:59:15;101323.53;;;13.32;100.00
36092;BME280;22147;52.388;13.390;2023-09-30T01:01:46;101329.25;;;13.27;100.00
36092;BME280;22147;52.388;13.390;2023-09-30T01:04:17;101326.78;;;13.26;100.00
36092;BME280;22147;52.388;13.390;2023-09-30T01:06:48;101333.69;;;13.19;100.00
36092;BME280;22147;52.388;13.390;2023-09-30T01:09:18;101330.25;;;13.14;100.00
36092;BME280;22147;52.388;13.390;2023-09-30T01:11:49;101328.28;;;13.06;100.00
36092;BME280;22147;52.388;13.390;2023-09-30T01:14:32;101328.16;;;13.02;100.00
36092;BME280;22147;52.388;13.390;2023-09-30T01:17:10;101342.09;;;12.93;100.00
36092;BME280;22147;52.388;13.390;2023-09-30T01:19:42;101343.06;;;12.89;100.00
36092;BME280;22147;52.388;13.390;2023-09-30T01:22:14;101342.09;;;12.84;100.00
36092;BME280;22147;52.388;13.390;2023-09-30T01:24:44;101347.66;;;12.76;100.00
36092;BME280;22147;52.388;13.390;2023-09-30T01:27:17;101349.47;;;12.72;100.00
36092;BME280;22147;52.388;13.390;2023-09-30T01:29:48;101359.31;;;12.69;100.00
36092;BME280;22147;52.388;13.390;2023-09-30T01:32:19;101357.50;;;12.65;100.00
36092;BME280;22147;52.388;13.390;2023-09-30T01:34:49;101355.69;;;12.60;100.00
36092;BME280;22147;52.388;13.390;2023-09-30T01:37:19;101361.09;;;12.56;100.00
36092;BME280;22147;52.388;13.390;2023-09-30T01:39:48;101369.13;;;12.49;100.00
36092;BME280;22147;52.388;13.390;2023-09-30T01:42:20;101369.28;;;12.44;100.00
36092;BME280;22147;52.388;13.390;2023-09-30T01:44:50;101377.28;;;12.37;100.00
36092;BME280;22147;52.388;13.390;2023-09-30T01:47:20;101386.75;;;12.27;100.00
36092;BME280;22147;52.388;13.390;2023-09-30T01:49:50;101382.47;;;12.21;100.00
36092;BME280;22147;52.388;13.390;2023-09-30T01:52:19;101385.44;;;12.16;100.00
36092;BME280;22147;52.388;13.390;2023-09-30T01:54:50;101388.38;;;12.11;100.00
36092;BME280;22147;52.388;13.390;2023-09-30T01:57:20;101389.00;;;12.08;100.00
36092;BME280;22147;52.388;13.390;2023-09-30T01:59:50;101395.84;;;12.01;100.00
36092;BME280;22147;52.388;13.390;2023-09-30T02:02:20;101407.31;;;12.00;100.00
36092;BME280;22147;52.388;13.390;2023-09-30T02:04:50;101409.13;;;11.96;100.00
36092;BME280;22147;52.388;13.390;2023-09-30T02:07:20;101407.63;;;11.90;100.00
36092;BME280;22147;52.388;13.390;2023-09-30T02:09:49;101414.31;;;11.89;100.00
36092;BME280;22147;52.388;13.390;2023-09-30T02:12:19;101412.28;;;11.80;100.00
36092;BME280;22147;52.388;13.390;2023-09-30T02:14:50;101419.44;;;11.73;100.00
36092;BME280;22147;52.388;13.390;2023-09-30T02:17:20;101408.63;;;11.71;100.00
36092;BME280;22147;52.388;13.390;2023-09-30T02:19:50;101417.59;;;11.68;100.00
36092;BME280;22147;52.388;13.390;2023-09-30T02:22:20;101426.41;;;11.61;100.00
36092;BME280;22147;52.388;13.390;2023-09-30T02:24:50;101424.38;;;11.53;100.00
36092;BME280;22147;52.388;13.390;2023-09-30T02:27:20;101416.69;;;11.50;100.00
36092;BME280;22147;52.388;13.390;2023-09-30T02:29:50;101425.28;;;11.40;100.00
36092;BME280;22147;52.388;13.390;2023-09-30T02:32:19;101426.38;;;11.30;100.00
36092;BME280;22147;52.388;13.390;2023-09-30T02:34:47;101431.53;;;11.23;100.00
36092;BME280;22147;52.388;13.390;2023-09-30T02:37:16;101432.50;;;11.18;100.00
36092;BME280;22147;52.388;13.390;2023-09-30T02:39:47;101439.63;;;11.11;100.00
36092;BME280;22147;52.388;13.390;2023-09-30T02:42:15;101441.06;;;11.08;100.00
36092;BME280;22147;52.388;13.390;2023-09-30T02:44:44;101437.59;;;11.03;100.00
36092;BME280;22147;52.388;13.390;2023-09-30T02:47:12;101448.19;;;11.00;100.00
36092;BME280;22147;52.388;13.390;2023-09-30T02:49:41;101460.16;;;11.01;100.00
36092;BME280;22147;52.388;13.390;2023-09-30T02:52:09;101466.53;;;11.02;100.00
36092;BME280;22147;52.388;13.390;2023-09-30T02:54:37;101460.25;;;10.96;100.00
36092;BME280;22147;52.388;13.390;2023-09-30T02:57:06;101454.81;;;10.91;100.00
36092;BME280;22147;52.388;13.390;2023-09-30T02:59:38;101465.94;;;10.91;100.00
36092;BME280;22147;52.388;13.390;2023-09-30T03:02:08;101470.16;;;10.88;100.00
36092;BME280;22147;52.388;13.390;2023-09-30T03:04:37;101469.44;;;10.96;100.00
36092;BME280;22147;52.388;13.390;2023-09-30T03:07:07;101467.78;;;10.95;100.00
36092;BME280;22147;52.388;13.390;2023-09-30T03:09:38;101471.81;;;10.89;100.00
36092;BME280;22147;52.388;13.390;2023-09-30T03:12:09;101470.78;;;10.85;100.00
36092;BME280;22147;52.388;13.390;2023-09-30T03:14:39;101478.94;;;10.82;100.00
36092;BME280;22147;52.388;13.390;2023-09-30T03:17:10;101473.16;;;10.78;100.00
36092;BME280;22147;52.388;13.390;2023-09-30T03:19:41;101471.34;;;10.73;100.00
36092;BME280;22147;52.388;13.390;2023-09-30T03:22:12;101479.66;;;10.73;100.00
36092;BME280;22147;52.388;13.390;2023-09-30T03:24:42;101496.44;;;10.68;100.00
36092;BME280;22147;52.388;13.390;2023-09-30T03:27:12;101498.69;;;10.66;100.00
36092;BME280;22147;52.388;13.390;2023-09-30T03:29:42;101496.84;;;10.62;100.00
36092;BME280;22147;52.388;13.390;2023-09-30T03:32:12;101494.19;;;10.56;100.00
36092;BME280;22147;52.388;13.390;2023-09-30T03:34:42;101493.34;;;10.56;100.00
36092;BME280;22147;52.388;13.390;2023-09-30T03:37:14;101492.94;;;10.49;100.00
36092;BME280;22147;52.388;13.390;2023-09-30T03:39:44;101501.91;;;10.46;100.00
36092;BME280;22147;52.388;13.390;2023-09-30T03:42:19;101499.44;;;10.44;100.00
36092;BME280;22147;52.388;13.390;2023-09-30T03:44:49;101500.56;;;10.43;100.00
36092;BME280;22147;52.388;13.390;2023-09-30T03:47:19;101492.94;;;10.35;100.00
36092;BME280;22147;52.388;13.390;2023-09-30T03:49:50;101500.78;;;10.33;100.00
36092;BME280;22147;52.388;13.390;2023-09-30T03:52:20;101503.22;;;10.34;100.00
36092;BME280;22147;52.388;13.390;2023-09-30T03:54:52;101504.97;;;10.30;100.00
36092;BME280;22147;52.388;13.390;2023-09-30T03:57:23;101501.38;;;10.30;100.00
36092;BME280;22147;52.388;13.390;2023-09-30T03:59:53;101507.19;;;10.28;100.00
36092;BME280;22147;52.388;13.390;2023-09-30T04:02:23;101502.28;;;10.25;100.00
36092;BME280;22147;52.388;13.390;2023-09-30T04:04:53;101508.13;;;10.24;100.00
36092;BME280;22147;52.388;13.390;2023-09-30T04:07:25;101498.75;;;10.19;100.00
36092;BME280;22147;52.388;13.390;2023-09-30T04:09:57;101503.50;;;10.19;100.00
36092;BME280;22147;52.388;13.390;2023-09-30T04:12:27;101504.31;;;10.19;100.00
36092;BME280;22147;52.388;13.390;2023-09-30T04:14:59;101511.94;;;10.14;100.00
36092;BME280;22147;52.388;13.390;2023-09-30T04:17:29;101519.22;;;10.10;100.00
36092;BME280;22147;52.388;13.390;2023-09-30T04:19:59;101521.25;;;10.04;100.00
36092;BME280;22147;52.388;13.390;2023-09-30T04:22:29;101531.22;;;10.05;100.00
36092;BME280;22147;52.388;13.390;2023-09-30T04:25:01;101531.84;;;10.02;100.00
36092;BME280;22147;52.388;13.390;2023-09-30T04:27:31;101532.75;;;9.97;100.00
36092;BME280;22147;52.388;13.390;2023-09-30T04:30:01;101533.69;;;9.93;100.00
36092;BME280;22147;52.388;13.390;2023-09-30T04:32:39;101534.88;;;9.87;100.00
36092;BME280;22147;52.388;13.390;2023-09-30T04:35:10;101535.47;;;9.84;100.00
36092;BME280;22147;52.388;13.390;2023-09-30T04:37:41;101537.53;;;9.78;100.00
36092;BME280;22147;52.388;13.390;2023-09-30T04:40:12;101537.69;;;9.68;100.00
36092;BME280;22147;52.388;13.390;2023-09-30T04:42:50;101534.94;;;9.68;100.00
36092;BME280;22147;52.388;13.390;2023-09-30T04:45:20;101533.06;;;9.63;100.00
36092;BME280;22147;52.388;13.390;2023-09-30T04:47:51;101530.34;;;9.58;100.00
36092;BME280;22147;52.388;13.390;2023-09-30T04:50:22;101520.47;;;9.52;100.00
36092;BME280;22147;52.388;13.390;2023-09-30T04:52:52;101524.16;;;9.47;100.00
36092;BME280;22147;52.388;13.390;2023-09-30T04:55:24;101535.53;;;9.46;100.00
36092;BME280;22147;52.388;13.390;2023-09-30T04:57:54;101531.13;;;9.45;100.00
36092;BME280;22147;52.388;13.390;2023-09-30T05:00:24;101535.00;;;9.44;100.00
36092;BME280;22147;52.388;13.390;2023-09-30T05:02:56;101541.94;;;9.46;100.00
36092;BME280;22147;52.388;13.390;2023-09-30T05:05:27;101544.47;;;9.43;100.00
36092;BME280;22147;52.388;13.390;2023-09-30T05:07:58;101545.28;;;9.43;100.00
36092;BME280;22147;52.388;13.390;2023-09-30T05:10:28;101546.72;;;9.41;100.00
36092;BME280;22147;52.388;13.390;2023-09-30T05:12:58;101553.69;;;9.38;100.00
36092;BME280;22147;52.388;13.390;2023-09-30T05:15:29;101552.03;;;9.37;100.00
36092;BME280;22147;52.388;13.390;2023-09-30T05:18:00;101559.53;;;9.36;100.00
36092;BME280;22147;52.388;13.390;2023-09-30T05:20:29;101557.56;;;9.37;100.00
36092;BME280;22147;52.388;13.390;2023-09-30T05:22:57;101544.84;;;9.36;100.00
36092;BME280;22147;52.388;13.390;2023-09-30T05:25:25;101551.50;;;9.35;100.00
36092;BME280;22147;52.388;13.390;2023-09-30T05:27:57;101562.28;;;9.36;100.00
36092;BME280;22147;52.388;13.390;2023-09-30T05:30:25;101555.69;;;9.32;100.00
36092;BME280;22147;52.388;13.390;2023-09-30T05:32:54;101564.31;;;9.31;100.00
36092;BME280;22147;52.388;13.390;2023-09-30T05:35:22;101573.47;;;9.31;100.00
36092;BME280;22147;52.388;13.390;2023-09-30T05:37:50;101580.88;;;9.36;100.00
36092;BME280;22147;52.388;13.390;2023-09-30T05:40:23;101582.47;;;9.42;100.00
36092;BME280;22147;52.388;13.390;2023-09-30T05:42:57;101579.84;;;9.51;100.00
36092;BME280;22147;52.388;13.390;2023-09-30T05:45:33;101583.34;;;9.56;100.00
36092;BME280;22147;52.388;13.390;2023-09-30T05:48:04;101587.16;;;9.61;100.00
36092;BME280;22147;52.388;13.390;2023-09-30T05:50:38;101586.81;;;9.67;100.00
36092;BME280;22147;52.388;13.390;2023-09-30T05:53:08;101600.50;;;9.77;100.00
36092;BME280;22147;52.388;13.390;2023-09-30T05:55:41;101605.59;;;9.89;100.00
36092;BME280;22147;52.388;13.390;2023-09-30T05:58:15;101613.22;;;9.97;100.00
36092;BME280;22147;52.388;13.390;2023-09-30T06:00:48;101613.44;;;10.01;100.00
36092;BME280;22147;52.388;13.390;2023-09-30T06:03:20;101618.91;;;10.06;100.00
36092;BME280;22147;52.388;13.390;2023-09-30T06:05:54;101615.66;;;10.18;100.00
36092;BME280;22147;52.388;13.390;2023-09-30T06:08:25;101607.16;;;10.28;100.00
36092;BME280;22147;52.388;13.390;2023-09-30T06:10:56;101609.47;;;10.40;100.00
36092;BME280;22147;52.388;13.390;2023-09-30T06:13:28;101608.47;;;10.50;100.00
36092;BME280;22147;52.388;13.390;2023-09-30T06:16:01;101620.22;;;10.61;100.00
36092;BME280;22147;52.388;13.390;2023-09-30T06:18:35;101614.66;;;10.74;100.00
36092;BME280;22147;52.388;13.390;2023-09-30T06:21:05;101625.28;;;10.86;100.00
36092;BME280;22147;52.388;13.390;2023-09-30T06:23:36;101627.34;;;10.94;100.00
36092;BME280;22147;52.388;13.390;2023-09-30T06:26:06;101632.78;;;10.99;100.00
36092;BME280;22147;52.388;13.390;2023-09-30T06:28:36;101630.53;;;11.02;100.00
36092;BME280;22147;52.388;13.390;2023-09-30T06:31:11;101635.66;;;11.08;100.00
36092;BME280;22147;52.388;13.390;2023-09-30T06:33:39;101644.00;;;11.08;100.00
36092;BME280;22147;52.388;13.390;2023-09-30T06:36:12;101643.91;;;11.13;100.00
36092;BME280;22147;52.388;13.390;2023-09-30T06:38:46;101641.00;;;11.18;100.00
36092;BME280;22147;52.388;13.390;2023-09-30T06:41:18;101646.44;;;11.24;100.00
36092;BME280;22147;52.388;13.390;2023-09-30T06:43:49;101653.03;;;11.28;100.00
36092;BME280;22147;52.388;13.390;2023-09-30T06:46:21;101647.81;;;11.26;100.00
36092;BME280;22147;52.388;13.390;2023-09-30T06:48:53;101656.03;;;11.31;100.00
36092;BME280;22147;52.388;13.390;2023-09-30T06:51:24;101666.75;;;11.38;100.00
36092;BME280;22147;52.388;13.390;2023-09-30T06:53:56;101661.38;;;11.41;100.00
36092;BME280;22147;52.388;13.390;2023-09-30T06:56:26;101670.13;;;11.49;100.00
36092;BME280;22147;52.388;13.390;2023-09-30T06:58:58;101675.25;;;11.55;100.00
36092;BME280;22147;52.388;13.390;2023-09-30T07:01:29;101673.72;;;11.63;100.00
36092;BME280;22147;52.388;13.390;2023-09-30T07:03:59;101672.66;;;11.73;100.00
36092;BME280;22147;52.388;13.390;2023-09-30T07:06:30;101671.94;;;11.81;100.00
36092;BME280;22147;52.388;13.390;2023-09-30T07:09:00;101682.84;;;11.91;100.00
36092;BME280;22147;52.388;13.390;2023-09-30T07:11:31;101686.59;;;12.09;100.00
36092;BME280;22147;52.388;13.390;2023-09-30T07:14:04;101696.16;;;12.17;100.00
36092;BME280;22147;52.388;13.390;2023-09-30T07:16:34;101693.31;;;12.31;100.00
36092;BME280;22147;52.388;13.390;2023-09-30T07:19:03;101699.59;;;12.36;100.00
36092;BME280;22147;52.388;13.390;2023-09-30T07:21:31;101696.16;;;12.39;100.00
36092;BME280;22147;52.388;13.390;2023-09-30T07:23:59;101701.69;;;12.53;100.00
36092;BME280;22147;52.388;13.390;2023-09-30T07:26:28;101711.56;;;12.59;100.00
36092;BME280;22147;52.388;13.390;2023-09-30T07:28:56;101714.84;;;12.61;100.00
36092;BME280;22147;52.388;13.390;2023-09-30T07:31:28;101717.47;;;12.67;100.00
36092;BME280;22147;52.388;13.390;2023-09-30T07:33:56;101722.09;;;12.71;100.00
36092;BME280;22147;52.388;13.390;2023-09-30T07:36:24;101720.13;;;12.72;100.00
36092;BME280;22147;52.388;13.390;2023-09-30T07:38:53;101714.19;;;12.65;100.00
36092;BME280;22147;52.388;13.390;2023-09-30T07:41:21;101718.63;;;12.66;100.00
36092;BME280;22147;52.388;13.390;2023-09-30T07:43:50;101721.28;;;12.71;100.00
36092;BME280;22147;52.388;13.390;2023-09-30T07:46:18;101726.09;;;12.79;100.00
36092;BME280;22147;52.388;13.390;2023-09-30T07:48:46;101721.38;;;12.88;100.00
36092;BME280;22147;52.388;13.390;2023-09-30T07:51:15;101718.53;;;13.11;100.00
36092;BME280;22147;52.388;13.390;2023-09-30T07:53:43;101723.19;;;13.24;100.00
36092;BME280;22147;52.388;13.390;2023-09-30T07:56:13;101730.44;;;13.25;100.00
36092;BME280;22147;52.388;13.390;2023-09-30T07:58:43;101740.69;;;13.16;100.00
36092;BME280;22147;52.388;13.390;2023-09-30T08:01:12;101745.25;;;13.03;100.00
36092;BME280;22147;52.388;13.390;2023-09-30T08:03:40;101734.03;;;12.94;100.00
36092;BME280;22147;52.388;13.390;2023-09-30T08:06:09;101736.28;;;12.83;100.00
36092;BME280;22147;52.388;13.390;2023-09-30T08:08:39;101739.69;;;12.80;100.00
36092;BME280;22147;52.388;13.390;2023-09-30T08:11:09;101750.53;;;12.82;100.00
36092;BME280;22147;52.388;13.390;2023-09-30T08:13:39;101744.78;;;12.78;100.00
36092;BME280;22147;52.388;13.390;2023-09-30T08:16:09;101752.19;;;12.83;100.00
36092;BME280;22147;52.388;13.390;2023-09-30T08:18:39;101749.25;;;12.88;100.00
36092;BME280;22147;52.388;13.390;2023-09-30T08:21:10;101754.56;;;12.98;100.00
36092;BME280;22147;52.388;13.390;2023-09-30T08:23:43;101749.75;;;13.21;100.00
36092;BME280;22147;52.388;13.390;2023-09-30T08:26:11;101746.56;;;13.37;100.00
36092;BME280;22147;52.388;13.390;2023-09-30T08:28:41;101751.56;;;13.57;100.00
36092;BME280;22147;52.388;13.390;2023-09-30T08:31:11;101760.97;;;13.79;100.00
36092;BME280;22147;52.388;13.390;2023-09-30T08:33:41;101763.16;;;13.99;100.00
36092;BME280;22147;52.388;13.390;2023-09-30T08:36:13;101755.44;;;14.14;100.00
36092;BME280;22147;52.388;13.390;2023-09-30T08:38:44;101752.31;;;14.15;100.00
36092;BME280;22147;52.388;13.390;2023-09-30T08:41:32;101760.88;;;14.19;100.00
36092;BME280;22147;52.388;13.390;2023-09-30T08:44:04;101761.19;;;14.17;100.00
36092;BME280;22147;52.388;13.390;2023-09-30T08:46:34;101756.44;;;14.18;100.00
36092;BME280;22147;52.388;13.390;2023-09-30T08:49:05;101752.00;;;14.25;100.00
36092;BME280;22147;52.388;13.390;2023-09-30T08:51:38;101753.81;;;14.39;100.00
36092;BME280;22147;52.388;13.390;2023-09-30T08:54:07;101755.16;;;14.41;100.00
36092;BME280;22147;52.388;13.390;2023-09-30T08:56:40;101753.00;;;14.38;100.00
36092;BME280;22147;52.388;13.390;2023-09-30T08:59:17;101757.75;;;14.46;100.00
36092;BME280;22147;52.388;13.390;2023-09-30T09:01:47;101759.88;;;14.41;100.00
36092;BME280;22147;52.388;13.390;2023-09-30T09:04:18;101759.56;;;14.42;100.00
36092;BME280;22147;52.388;13.390;2023-09-30T09:06:48;101752.00;;;14.52;100.00
36092;BME280;22147;52.388;13.390;2023-09-30T09:09:19;101756.94;;;14.72;100.00
36092;BME280;22147;52.388;13.390;2023-09-30T09:11:51;101751.28;;;14.90;100.00
36092;BME280;22147;52.388;13.390;2023-09-30T09:14:36;101751.94;;;15.04;100.00
36092;BME280;22147;52.388;13.390;2023-09-30T09:17:10;101747.44;;;15.20;100.00
36092;BME280;22147;52.388;13.390;2023-09-30T09:19:40;101747.16;;;15.43;100.00
36092;BME280;22147;52.388;13.390;2023-09-30T09:22:07;101745.75;;;15.66;100.00
36092;BME280;22147;52.388;13.390;2023-09-30T09:24:37;101739.34;;;15.87;100.00
36092;BME280;22147;52.388;13.390;2023-09-30T09:27:14;101749.78;;;16.07;100.00
36092;BME280;22147;52.388;13.390;2023-09-30T09:29:45;101746.56;;;16.18;98.75
36092;BME280;22147;52.388;13.390;2023-09-30T09:32:16;101746.97;;;16.28;96.36
36092;BME280;22147;52.388;13.390;2023-09-30T09:35:00;101746.41;;;16.35;97.37
36092;BME280;22147;52.388;13.390;2023-09-30T09:37:32;101755.94;;;16.43;95.04
36092;BME280;22147;52.388;13.390;2023-09-30T09:40:00;101756.25;;;16.41;95.77
36092;BME280;22147;52.388;13.390;2023-09-30T09:42:33;101758.97;;;16.50;94.93
36092;BME280;22147;52.388;13.390;2023-09-30T09:45:07;101760.66;;;16.63;93.62
36092;BME280;22147;52.388;13.390;2023-09-30T09:47:37;101750.31;;;16.76;91.63
36092;BME280;22147;52.388;13.390;2023-09-30T09:50:09;101760.66;;;16.84;90.58
36092;BME280;22147;52.388;13.390;2023-09-30T09:52:41;101765.50;;;16.75;88.79
36092;BME280;22147;52.388;13.390;2023-09-30T09:55:18;101749.69;;;16.58;91.25
36092;BME280;22147;52.388;13.390;2023-09-30T09:57:51;101751.34;;;16.72;91.49
36092;BME280;22147;52.388;13.390;2023-09-30T10:00:25;101748.06;;;16.91;88.58
36092;BME280;22147;52.388;13.390;2023-09-30T10:02:56;101749.94;;;16.99;87.55
36092;BME280;22147;52.388;13.390;2023-09-30T10:05:27;101752.53;;;17.04;85.40
36092;BME280;22147;52.388;13.390;2023-09-30T10:08:07;101745.16;;;16.99;86.16
36092;BME280;22147;52.388;13.390;2023-09-30T10:10:45;101754.28;;;16.75;85.76
36092;BME280;22147;52.388;13.390;2023-09-30T10:24:51;101748.41;;;16.35;85.48
36092;BME280;22147;52.388;13.390;2023-09-30T10:40:58;101751.63;;;16.24;83.30
36092;BME280;22147;52.388;13.390;2023-09-30T10:43:32;101756.19;;;16.08;82.84
36092;BME280;22147;52.388;13.390;2023-09-30T10:48:56;101758.03;;;16.04;83.57
36092;BME280;22147;52.388;13.390;2023-09-30T10:51:43;101760.25;;;16.19;82.94
36092;BME280;22147;52.388;13.390;2023-09-30T10:54:22;101759.78;;;16.17;84.14
36092;BME280;22147;52.388;13.390;2023-09-30T10:57:02;101764.75;;;16.12;82.15
36092;BME280;22147;52.388;13.390;2023-09-30T10:59:33;101768.63;;;15.98;81.45
36092;BME280;22147;52.388;13.390;2023-09-30T11:02:19;101761.59;;;15.92;81.19
36092;BME280;22147;52.388;13.390;2023-09-30T11:04:53;101763.69;;;15.95;81.06
36092;BME280;22147;52.388;13.390;2023-09-30T11:07:26;101752.31;;;16.00;80.49
36092;BME280;22147;52.388;13.390;2023-09-30T11:10:01;101761.13;;;16.32;76.51
36092;BME280;22147;52.388;13.390;2023-09-30T11:12:32;101760.91;;;16.58;73.46
36092;BME280;22147;52.388;13.390;2023-09-30T11:15:04;101759.50;;;16.85;72.24
36092;BME280;22147;52.388;13.390;2023-09-30T11:17:35;101760.25;;;17.07;71.42
36092;BME280;22147;52.388;13.390;2023-09-30T11:20:08;101748.25;;;17.19;72.14
36092;BME280;22147;52.388;13.390;2023-09-30T11:22:40;101750.59;;;17.41;71.70
36092;BME280;22147;52.388;13.390;2023-09-30T11:25:18;101747.66;;;17.62;70.00
36092;BME280;22147;52.388;13.390;2023-09-30T11:27:49;101750.81;;;17.61;71.17
36092;BME280;22147;52.388;13.390;2023-09-30T11:30:17;101744.50;;;17.64;70.31
36092;BME280;22147;52.388;13.390;2023-09-30T11:32:46;101741.22;;;17.74;70.17
36092;BME280;22147;52.388;13.390;2023-09-30T11:35:23;101750.00;;;17.73;67.89
36092;BME280;22147;52.388;13.390;2023-09-30T11:37:54;101739.00;;;17.43;67.41
36092;BME280;22147;52.388;13.390;2023-09-30T11:40:24;101743.56;;;17.35;68.92
36092;BME280;22147;52.388;13.390;2023-09-30T11:43:08;101731.06;;;17.45;68.57
36092;BME280;22147;52.388;13.390;2023-09-30T11:45:42;101724.16;;;17.55;66.91
36092;BME280;22147;52.388;13.390;2023-09-30T11:48:19;101724.25;;;17.70;67.53
36092;BME280;22147;52.388;13.390;2023-09-30T11:50:49;101716.41;;;17.76;66.63
36092;BME280;22147;52.388;13.390;2023-09-30T11:53:20;101722.13;;;17.80;68.84
36092;BME280;22147;52.388;13.390;2023-09-30T11:55:50;101725.44;;;17.69;68.25
36092;BME280;22147;52.388;13.390;2023-09-30T11:58:22;101712.44;;;17.65;68.26
36092;BME280;22147;52.388;13.390;2023-09-30T12:00:57;101712.91;;;17.67;68.93
36092;BME280;22147;52.388;13.390;2023-09-30T12:03:29;101715.34;;;17.68;67.59
36092;BME280;22147;52.388;13.390;2023-09-30T12:06:00;101707.19;;;17.63;67.90
36092;BME280;22147;52.388;13.390;2023-09-30T12:08:30;101707.66;;;17.65;66.47
36092;BME280;22147;52.388;13.390;2023-09-30T12:11:00;101705.31;;;17.67;66.52
36092;BME280;22147;52.388;13.390;2023-09-30T12:13:31;101710.22;;;17.70;66.03
36092;BME280;22147;52.388;13.390;2023-09-30T12:16:01;101710.09;;;17.67;65.11
36092;BME280;22147;52.388;13.390;2023-09-30T12:18:33;101711.97;;;17.63;68.16
36092;BME280;22147;52.388;13.390;2023-09-30T12:21:04;101717.22;;;17.40;68.04
36092;BME280;22147;52.388;13.390;2023-09-30T12:23:37;101707.78;;;17.20;65.99
36092;BME280;22147;52.388;13.390;2023-09-30T12:26:08;101699.69;;;17.06;67.58
36092;BME280;22147;52.388;13.390;2023-09-30T12:28:44;101705.75;;;16.96;68.45
36092;BME280;22147;52.388;13.390;2023-09-30T12:31:15;101698.63;;;16.98;68.15
36092;BME280;22147;52.388;13.390;2023-09-30T12:33:45;101699.81;;;17.09;66.28
36092;BME280;22147;52.388;13.390;2023-09-30T12:36:21;101701.81;;;17.21;65.88
36092;BME280;22147;52.388;13.390;2023-09-30T12:38:50;101697.84;;;17.35;66.32
36092;BME280;22147;52.388;13.390;2023-09-30T12:41:20;101691.16;;;17.39;67.92
36092;BME280;22147;52.388;13.390;2023-09-30T12:43:50;101683.44;;;17.48;65.77
36092;BME280;22147;52.388;13.390;2023-09-30T12:46:20;101675.81;;;17.61;66.67
36092;BME280;22147;52.388;13.390;2023-09-30T12:48:50;101685.28;;;17.69;65.24
36092;BME280;22147;52.388;13.390;2023-09-30T12:51:20;101679.91;;;17.76;65.68
36092;BME280;22147;52.388;13.390;2023-09-30T12:53:50;101684.00;;;17.91;64.42
36092;BME280;22147;52.388;13.390;2023-09-30T12:56:21;101682.19;;;17.99;64.40
36092;BME280;22147;52.388;13.390;2023-09-30T12:58:50;101685.47;;;18.01;64.28
36092;BME280;22147;52.388;13.390;2023-09-30T13:01:19;101690.88;;;17.94;64.41
36092;BME280;22147;52.388;13.390;2023-09-30T13:03:50;101686.06;;;17.82;64.75
36092;BME280;22147;52.388;13.390;2023-09-30T13:06:20;101697.22;;;17.66;62.75
36092;BME280;22147;52.388;13.390;2023-09-30T13:08:50;101703.44;;;17.47;64.62
36092;BME280;22147;52.388;13.390;2023-09-30T13:11:20;101697.34;;;17.33;64.49
36092;BME280;22147;52.388;13.390;2023-09-30T13:13:50;101691.28;;;17.18;65.23
36092;BME280;22147;52.388;13.390;2023-09-30T13:16:20;101695.81;;;17.23;65.16
36092;BME280;22147;52.388;13.390;2023-09-30T13:18:50;101690.47;;;17.30;66.45
36092;BME280;22147;52.388;13.390;2023-09-30T13:21:21;101699.56;;;17.39;63.36